Date,TemperatureHighF,TemperatureAvgF,TemperatureLowF,DewpointHighF,DewpointAvgF,DewpointLowF,HumidityHigh,HumidityAvg,HumidityLow,PressureMaxIn,PressureMinIn,WindSpeedMaxMPH,WindSpeedAvgMPH,GustSpeedMaxMPH,PrecipitationSumIn
2013-4-26,48.7,46.1,45.9,44.1,40.4,-99.9,90,84,80,30.28,30.10,17,-9,0,3.88
2013-4-27,55.4,50.2,46.4,49.7,46.8,43.3,92,88,80,30.12,29.93,17,4,0,0.30
2013-4-28,77.0,57.7,48.6,52.2,46.9,43.8,92,70,39,29.97,29.80,9,3,0,0.00
2013-4-29,86.4,69.8,53.2,60.9,52.6,46.6,83,57,34,29.84,29.66,12,5,0,0.00
2013-4-30,83.8,71.9,60.1,54.1,50.9,45.1,77,50,31,29.82,29.71,14,6,0,0.00
2013-5-1,82.4,69.6,57.9,59.6,54.6,45.1,80,60,44,30.00,29.82,12,5,0,0.00
2013-5-2,63.3,47.6,34.0,57.1,42.5,31.4,92,83,73,30.17,29.98,11,5,0,0.53
2013-5-3,35.1,32.9,32.0,32.5,30.9,30.3,95,92,88,30.14,29.82,13,6,0,0.90
2013-5-4,48.2,39.2,32.2,36.7,33.3,30.9,96,80,59,29.93,29.75,7,2,0,0.78
2013-5-5,60.1,49.3,39.9,47.2,41.9,36.4,90,76,61,29.99,29.91,13,5,0,0.00
2013-5-6,71.4,57.2,50.2,52.4,49.4,46.3,91,77,51,30.00,29.92,10,5,0,0.00
2013-5-7,77.9,61.0,42.3,55.1,48.2,40.2,94,67,39,30.01,29.91,6,2,0,0.00
2013-5-8,72.0,61.9,48.6,57.7,52.2,45.7,92,72,50,30.02,29.85,10,2,0,0.11
2013-5-9,76.8,66.2,57.7,59.3,55.7,52.9,88,70,52,29.89,29.80,11,5,0,0.85
2013-5-10,66.0,59.5,47.7,56.8,53.3,44.0,92,80,61,29.98,29.82,9,3,0,0.00
2013-5-11,72.5,56.7,42.6,51.3,41.9,30.8,93,63,31,30.15,29.99,14,4,0,0.00
2013-5-12,72.1,52.0,32.2,44.3,34.6,29.0,90,57,26,30.24,30.10,13,2,0,0.01
2013-5-13,84.7,62.4,42.6,53.0,45.0,36.4,90,57,33,30.15,29.96,9,3,0,0.00
2013-5-14,90.0,75.8,61.9,56.2,50.6,47.0,64,43,26,29.95,29.84,13,6,0,0.00
2013-5-15,83.3,70.2,62.4,63.9,55.7,47.4,89,62,47,29.92,29.81,9,4,0,0.34
2013-5-16,67.8,64.2,60.4,60.6,58.7,56.6,90,83,73,29.85,29.78,10,5,0,0.00
2013-5-17,83.7,68.8,60.3,61.5,59.4,57.4,91,74,44,29.87,29.80,7,2,0,0.00
2013-5-18,82.4,73.0,62.2,69.8,65.2,58.0,90,77,61,29.87,29.73,12,6,0,0.00
2013-5-19,86.9,76.8,69.4,68.7,65.2,60.2,90,70,42,29.78,29.55,15,7,0,0.43
2013-5-20,74.8,67.0,59.9,67.4,61.6,56.6,91,83,71,29.80,29.62,10,4,0,2.09
2013-5-21,72.0,64.7,60.1,60.6,57.5,52.8,89,78,62,29.77,29.53,11,4,0,0.00
2013-5-22,74.7,63.6,54.1,56.1,53.4,51.4,92,71,48,29.90,29.68,11,4,0,0.00
2013-5-23,74.1,62.0,48.9,55.6,51.7,46.4,93,71,50,30.14,29.88,10,3,0,0.00
2013-5-24,76.1,62.8,50.9,51.0,46.6,42.4,91,59,34,30.28,30.13,14,5,0,0.00
2013-5-25,82.4,67.7,55.6,61.0,51.2,41.1,70,56,45,30.20,29.99,12,6,0,0.00
2013-5-26,85.3,74.2,62.6,64.0,59.8,56.8,82,62,41,30.06,29.89,13,6,0,0.00
2013-5-27,84.2,74.8,65.8,66.5,62.5,58.8,82,66,52,29.94,29.69,18,7,0,0.00
2013-5-28,83.1,74.1,68.9,66.2,62.4,59.9,78,67,51,29.82,29.67,16,7,0,0.03
2013-5-29,82.0,74.9,68.5,63.9,61.6,59.7,78,64,52,29.84,29.67,16,8,0,0.00
2013-5-30,82.6,70.5,62.4,64.3,61.4,58.3,91,74,46,29.77,29.65,18,7,0,3.71
2013-5-31,82.9,73.0,64.0,69.5,65.4,60.6,91,78,62,29.76,29.59,17,6,0,1.99
2013-6-1,77.4,67.4,60.4,63.7,59.5,53.4,92,78,51,29.90,29.60,11,5,0,1.38
2013-6-2,63.3,59.7,49.8,55.4,52.5,46.4,89,77,67,29.98,29.88,9,3,0,0.00
2013-6-3,77.9,62.1,44.8,55.7,50.6,42.2,92,69,45,30.00,29.83,8,3,0,0.00
2013-6-4,74.7,66.0,59.9,61.8,56.9,53.0,89,73,60,29.93,29.83,11,5,0,0.00
2013-6-5,72.9,64.6,58.5,64.5,59.1,55.6,91,83,73,29.90,29.79,7,2,0,0.23
2013-6-6,72.9,62.9,54.5,62.8,57.2,51.4,93,82,58,29.88,29.81,5,1,0,0.03
2013-6-7,79.0,61.6,47.8,56.5,51.2,45.3,92,72,37,29.92,29.84,8,2,0,0.00
2013-6-8,82.6,66.4,46.0,56.0,51.3,43.4,92,62,35,29.92,29.78,8,3,0,0.00
2013-6-9,81.1,68.9,60.1,63.0,57.4,54.6,87,68,44,29.88,29.74,8,3,0,0.67
2013-6-10,95.7,74.7,58.1,69.1,61.3,53.9,89,66,39,29.84,29.75,7,2,0,0.00
2013-6-11,94.5,81.5,67.8,67.9,64.0,59.6,90,59,33,29.91,29.81,9,4,0,0.00
2013-6-12,92.1,82.8,72.0,69.4,66.2,63.4,79,59,40,29.88,29.77,14,6,0,0.00
2013-6-13,89.8,76.6,67.3,64.8,61.4,55.5,83,60,43,29.96,29.86,8,2,0,0.00
2013-6-14,87.6,75.7,60.6,67.5,62.9,57.5,90,66,50,29.98,29.85,10,4,0,0.00
2013-6-15,75.2,70.5,65.8,67.8,63.4,60.9,90,79,65,30.00,29.84,11,4,0,1.59
2013-6-16,90.1,75.5,66.6,72.5,66.6,59.6,91,76,51,29.94,29.81,14,3,0,0.47
2013-6-17,73.6,69.0,63.7,68.3,64.9,59.4,92,87,79,29.93,29.80,14,2,0,0.56
2013-6-18,86.9,70.0,55.9,65.6,60.9,53.3,92,75,43,29.97,29.88,7,1,0,0.20
2013-6-19,86.5,74.1,59.2,66.0,62.0,56.6,92,69,46,29.99,29.91,7,2,0,0.01
2013-6-20,88.5,77.5,64.9,67.8,64.3,60.1,86,65,49,30.02,29.92,9,5,0,0.00
2013-6-21,91.2,81.1,72.1,73.0,68.3,65.2,80,66,53,30.02,29.92,10,5,0,0.00
2013-6-22,90.9,81.4,73.2,72.0,69.0,65.8,83,67,52,30.01,29.87,12,5,0,0.00
2013-6-23,91.2,81.2,72.5,72.5,68.0,65.2,80,65,48,29.96,29.84,10,5,0,0.00
2013-6-24,91.6,81.3,73.4,71.2,67.6,65.5,77,64,49,30.00,29.87,9,5,0,0.00
2013-6-25,89.8,81.6,73.8,70.5,66.9,64.7,75,62,48,29.92,29.75,16,5,0,0.00
2013-6-26,95.4,84.1,74.7,74.9,70.1,65.1,80,64,51,29.83,29.74,12,5,0,0.00
2013-6-27,94.6,83.7,72.0,77.2,73.6,68.6,89,73,52,29.90,29.78,8,2,0,0.00
2013-6-28,88.7,78.1,66.2,74.6,65.7,57.2,90,68,45,29.86,29.76,13,4,0,0.23
2013-6-29,84.6,72.9,59.2,60.9,56.9,54.0,89,60,36,29.79,29.69,15,6,0,0.00
2013-6-30,77.4,67.6,60.1,60.2,58.0,56.0,89,72,53,29.90,29.75,9,3,0,0.01
2013-7-1,81.3,68.9,56.7,58.7,56.0,49.6,88,66,45,29.98,29.89,8,2,0,0.00
2013-7-2,84.0,66.0,49.3,57.8,53.0,45.9,90,66,38,30.03,29.97,8,1,0,0.00
2013-7-3,86.9,68.2,52.3,63.5,55.4,49.2,91,67,38,30.06,29.93,8,2,0,0.26
2013-7-4,88.0,71.3,58.1,64.0,58.0,53.6,87,65,40,30.03,29.90,12,2,0,0.48
2013-7-5,88.7,74.8,57.6,63.4,59.0,53.4,88,61,38,29.99,29.87,9,3,0,0.00
2013-7-6,91.0,76.4,64.8,65.9,62.1,59.2,82,63,40,29.97,29.84,7,3,0,0.00
2013-7-7,98.8,80.9,68.4,68.8,64.4,60.7,79,59,36,29.99,29.90,8,4,0,0.00
2013-7-8,91.8,79.5,68.5,72.2,66.7,61.3,82,66,52,30.04,29.95,6,3,0,0.00
2013-7-9,98.6,84.1,69.6,73.1,69.3,64.5,84,63,44,30.02,29.87,12,3,0,0.00
2013-7-10,102.2,81.4,70.0,76.4,70.9,66.3,89,72,42,29.97,29.85,12,2,0,1.56
2013-7-11,88.5,77.1,68.9,70.1,65.7,60.1,90,70,45,29.98,29.90,7,3,0,0.00
2013-7-12,89.6,74.4,63.3,64.2,58.9,54.1,78,60,35,30.03,29.92,11,4,0,0.00
2013-7-13,84.4,72.8,57.4,64.9,59.0,51.9,84,63,48,30.02,29.89,7,3,0,0.00
2013-7-14,88.0,75.9,60.8,64.2,60.3,55.4,83,60,39,30.03,29.93,10,4,0,0.00
2013-7-15,88.7,76.5,67.8,70.4,66.1,60.5,86,71,55,30.12,30.01,14,4,0,0.00
2013-7-16,91.9,78.1,67.6,72.0,68.5,63.9,90,74,49,30.24,30.12,11,3,0,0.00
2013-7-17,95.0,80.8,66.7,72.2,68.5,63.7,90,68,44,30.28,30.14,7,2,0,0.00
2013-7-18,103.8,84.4,69.4,74.5,68.0,63.3,81,60,35,30.17,29.97,6,2,0,0.00
2013-7-19,96.6,82.1,68.5,72.8,67.7,63.8,85,63,42,29.98,29.83,7,2,0,0.00
2013-7-20,93.9,78.8,69.3,74.2,68.0,64.7,90,71,51,29.91,29.77,17,3,0,2.73
2013-7-21,85.3,73.9,68.9,71.2,68.6,66.2,92,84,61,29.88,29.77,6,1,0,0.16
2013-7-22,87.6,77.3,66.6,71.0,67.1,62.6,91,72,56,29.84,29.75,10,3,0,0.05
2013-7-23,97.7,82.3,72.0,78.2,70.5,63.5,84,68,51,29.82,29.72,12,4,0,0.09
2013-7-24,89.6,76.3,66.0,70.1,65.7,58.9,88,71,43,29.97,29.81,7,1,0,0.00
2013-7-25,87.6,73.4,58.6,66.5,61.5,55.7,90,68,45,30.05,29.96,7,2,0,0.00
2013-7-26,72.1,69.3,66.2,66.6,63.6,60.6,90,82,70,30.01,29.92,8,2,0,1.53
2013-7-27,84.2,69.2,59.5,63.4,60.1,55.9,91,74,44,30.00,29.90,7,1,0,0.00
2013-7-28,75.7,67.0,57.9,62.9,59.8,54.7,91,79,61,30.00,29.94,6,1,0,0.00
2013-7-29,82.8,71.8,64.2,71.6,65.4,60.8,89,81,69,30.04,29.93,12,4,0,0.19
2013-7-30,87.4,75.5,69.4,75.1,70.2,66.5,91,84,67,29.99,29.90,12,3,0,4.51
2013-7-31,89.6,76.7,68.0,73.4,69.5,64.0,92,80,57,30.01,29.93,7,1,0,0.00
2013-8-1,88.2,73.8,60.3,70.1,64.1,57.7,91,74,51,30.05,29.92,6,2,0,0.00
2013-8-2,88.2,76.3,68.5,75.4,68.0,63.0,87,76,66,29.92,29.78,12,4,0,0.00
2013-8-3,90.0,76.9,68.5,74.7,69.9,65.4,90,80,61,30.03,29.81,13,3,0,1.92
2013-8-4,73.6,71.9,70.0,69.8,68.5,66.8,91,89,83,30.11,29.97,6,2,0,1.49
2013-8-5,88.0,76.1,70.5,76.8,70.8,67.4,91,84,68,29.98,29.78,8,4,0,1.27
2013-8-6,84.9,75.6,70.2,75.3,70.4,67.1,90,84,72,29.86,29.74,12,4,0,0.90
2013-8-7,91.4,77.1,70.0,77.5,71.3,66.8,91,83,62,29.90,29.74,19,3,0,1.81
2013-8-8,88.3,75.9,70.2,73.9,69.7,66.6,91,82,61,29.93,29.80,7,2,0,1.16
2013-8-9,82.4,74.3,69.4,71.1,68.4,64.3,90,82,68,30.00,29.87,7,2,0,0.00
2013-8-10,85.5,73.8,66.2,69.9,66.2,63.5,91,78,57,30.09,30.00,12,3,0,0.13
2013-8-11,87.6,75.8,66.2,73.9,68.6,62.6,91,79,64,30.06,29.95,9,3,0,0.00
2013-8-12,89.4,74.9,67.8,74.1,69.5,64.8,91,84,59,29.99,29.88,8,1,0,0.75
2013-8-13,82.4,71.6,63.0,68.4,64.8,59.1,91,80,59,30.03,29.93,6,1,0,0.00
2013-8-14,80.4,66.3,59.5,60.1,57.6,54.4,89,75,45,30.12,30.02,8,3,0,0.00
2013-10-4,88.2,79.9,72.5,71.8,68.4,63.7,84,68,57,29.86,29.77,12,5,0,0.00
2013-10-5,72.3,57.7,46.4,67.7,54.9,44.5,93,90,85,29.95,29.82,10,3,0,3.47
2013-10-6,62.2,52.1,41.5,46.7,43.3,39.1,93,74,51,29.93,29.84,14,5,0,0.01
2013-10-7,80.6,57.6,39.4,51.4,46.0,37.5,93,70,34,30.09,29.93,7,1,0,0.00
2013-10-8,75.2,57.7,40.6,52.9,47.5,38.5,93,72,44,30.11,30.00,11,3,0,0.00
2013-10-9,78.8,60.4,41.9,52.3,48.1,39.2,92,68,36,30.08,29.98,7,2,0,0.00
2013-10-10,79.3,63.1,48.2,59.0,53.3,46.0,93,73,45,30.07,29.87,9,3,0,0.00
2013-10-11,80.6,67.9,57.9,65.4,60.3,54.6,89,78,59,29.91,29.78,13,7,0,0.00
2013-10-12,77.5,63.3,47.1,62.0,55.3,44.3,92,77,44,30.14,29.83,17,2,0,0.77
2013-10-13,74.8,57.7,46.0,48.5,45.8,42.8,92,67,39,30.32,30.15,9,4,0,0.00
2013-10-14,65.7,59.8,49.3,59.0,51.1,43.0,86,74,57,30.23,29.90,14,5,0,0.00
2013-10-15,63.7,58.3,48.7,59.7,54.6,45.8,93,88,81,29.98,29.81,15,4,0,0.62
2013-10-16,63.7,50.2,38.3,46.2,42.8,35.9,92,77,50,30.04,29.92,8,2,0,0.02
2013-10-17,69.1,53.2,41.0,47.9,43.7,38.0,93,73,40,29.98,29.88,7,2,0,0.00
2013-10-18,64.4,46.6,35.1,46.9,41.0,33.0,94,82,53,30.03,29.93,7,1,0,0.31
2013-10-19,62.8,46.4,35.6,43.8,37.4,33.5,93,74,41,30.04,29.92,9,4,0,0.05
2013-10-20,72.5,55.4,42.6,45.2,40.3,37.5,83,60,31,29.94,29.80,10,4,0,0.00
2013-10-21,61.0,47.7,33.4,46.2,40.0,31.3,92,76,44,30.04,29.88,8,2,0,0.00
2013-10-22,69.1,49.1,31.3,47.1,38.4,29.0,94,70,44,30.02,29.82,10,4,0,0.00
2013-10-23,61.9,44.3,30.6,41.2,35.1,28.3,93,72,37,30.13,29.96,6,2,0,0.00
2013-10-24,55.6,43.6,30.6,38.3,32.1,26.4,91,68,34,30.37,30.03,9,2,0,0.00
2013-10-25,58.6,41.8,24.4,34.5,27.3,21.9,92,61,30,30.45,30.14,11,3,0,0.00
2013-10-26,68.0,50.3,39.0,50.8,41.7,31.3,90,73,53,30.13,30.00,10,3,0,0.00
2013-10-27,73.0,49.0,27.9,40.7,34.4,25.9,93,65,24,30.06,29.90,7,1,0,0.00
2013-10-28,70.3,53.8,35.6,55.9,47.4,34.0,96,81,52,30.11,29.95,7,2,0,0.00
2013-10-29,64.9,59.4,52.9,62.5,57.0,49.1,93,92,87,30.09,29.91,12,6,0,4.28
2013-10-30,69.3,64.6,62.1,65.6,61.9,59.1,93,91,87,29.96,29.73,14,6,0,0.82
2013-10-31,69.8,58.1,47.5,64.4,55.7,46.1,95,92,83,29.72,29.37,12,5,0,0.74
2013-11-1,66.7,51.5,41.7,47.7,43.6,40.1,94,78,42,29.91,29.63,15,3,0,0.15
2013-11-2,56.8,44.1,32.4,42.8,38.5,30.7,94,82,57,30.15,29.89,12,4,0,0.00
2013-11-3,59.5,46.0,29.3,41.9,36.8,27.8,95,72,50,30.18,29.97,19,6,0,0.00
2013-11-4,61.2,52.8,48.0,49.3,44.9,40.0,87,75,63,30.11,29.96,14,8,0,0.00
2013-11-5,59.4,55.7,52.3,57.1,53.3,49.3,93,92,87,30.10,29.86,15,8,0,0.82
2013-11-6,59.9,45.0,33.1,57.6,42.3,31.0,94,90,84,30.29,29.81,14,6,0,0.96
2013-11-7,61.5,41.6,27.0,41.6,32.8,25.5,96,75,37,30.36,30.26,14,2,0,0.00
2013-11-8,64.0,54.3,30.4,41.2,36.4,28.6,94,53,32,30.29,29.98,14,7,0,0.00
2013-11-9,69.8,52.7,37.8,46.1,41.3,35.7,93,68,42,30.22,30.01,12,3,0,0.00
2013-11-10,67.3,43.7,34.0,38.2,35.7,32.5,95,77,30,30.32,30.21,6,0,0,0.00
2013-11-11,63.0,54.3,36.5,51.6,45.8,33.9,90,73,61,30.40,30.11,9,3,0,0.02
2013-11-12,40.5,28.5,16.2,33.9,17.0,13.5,90,64,36,30.72,30.43,13,3,0,0.00
2013-11-13,51.1,33.3,13.5,19.0,16.0,10.4,91,55,23,30.63,30.22,10,4,0,0.00
2013-11-14,57.0,43.3,29.1,26.6,20.5,16.1,65,42,20,30.22,29.94,11,5,0,0.00
2013-11-15,59.0,50.6,43.2,47.6,42.4,26.8,86,74,48,29.97,29.77,15,7,0,0.02
2013-11-16,69.1,59.9,51.6,62.0,55.0,47.6,88,84,70,29.78,29.49,18,9,0,0.06
2013-11-17,73.8,65.3,48.7,64.0,44.4,20.9,84,51,22,29.98,29.39,23,9,0,0.01
2013-11-18,62.6,45.7,31.1,40.2,31.1,24.8,89,61,26,30.22,29.99,8,2,0,0.00
2013-11-19,58.8,46.2,31.5,31.9,28.2,20.3,89,53,30,30.21,30.01,14,6,0,0.00
2013-11-20,57.7,46.5,37.8,33.5,29.7,20.1,83,54,36,30.01,29.84,16,9,0,0.18
2013-11-21,52.7,49.7,41.7,49.5,47.3,39.8,94,91,86,30.20,29.97,8,3,0,1.12
2013-11-22,39.6,31.2,29.3,37.7,29.4,27.0,95,93,90,30.48,30.21,12,6,0,0.01
2013-11-23,39.9,29.0,16.3,27.9,20.2,11.2,91,71,45,30.63,30.47,10,5,0,0.00
2013-11-24,30.0,22.5,12.7,13.5,10.0,6.3,85,61,37,30.63,30.28,8,4,0,0.00
2013-11-25,38.5,32.1,28.2,28.7,21.5,10.3,82,65,46,30.28,30.10,8,3,0,0.00
2013-11-26,45.5,32.6,22.3,30.7,24.7,13.4,88,73,53,30.26,30.04,14,5,0,0.00
2013-11-27,38.8,24.4,14.0,14.1,12.6,10.1,84,63,34,30.34,30.18,9,3,0,0.00
2013-11-28,53.1,36.9,24.1,28.8,21.1,14.6,91,54,37,30.39,30.17,11,4,0,0.00
2013-11-29,55.9,40.0,23.0,30.8,27.4,20.3,90,64,38,30.44,30.24,8,4,0,0.00
2013-11-30,62.8,47.0,34.3,43.8,36.3,27.9,83,67,48,30.25,30.02,13,5,0,0.00
2013-12-1,66.6,49.6,34.0,61.0,44.3,32.7,96,83,58,30.05,29.81,6,2,0,0.00
2013-12-2,63.5,48.1,36.1,49.0,43.7,34.8,96,86,59,29.83,29.58,9,2,0,0.00
2013-12-3,63.1,50.3,39.6,53.9,47.0,38.0,97,89,70,29.59,29.47,10,4,0,0.00
2013-12-4,63.9,47.7,30.4,52.8,43.6,27.6,94,86,59,29.88,29.47,13,6,0,0.00
2013-12-5,29.7,22.3,17.8,26.9,18.5,15.0,91,85,71,30.22,29.88,12,5,0,0.00
2013-12-6,21.2,16.8,8.6,16.3,12.3,2.9,91,83,69,30.49,30.17,9,4,0,0.00
2013-12-7,24.1,13.3,3.2,12.9,5.5,-0.1,86,71,47,30.57,30.25,15,6,0,0.00
2013-12-8,29.3,22.9,17.6,25.5,19.1,9.1,93,85,66,30.24,29.90,9,4,0,0.00
2013-12-9,26.6,21.7,17.6,24.6,17.9,13.5,92,86,65,30.26,30.05,9,3,0,0.00
2013-12-10,38.8,20.2,4.8,17.5,12.8,2.8,92,75,39,30.31,30.16,5,1,0,0.02
2013-12-11,39.7,20.5,7.0,23.6,12.6,4.0,92,74,40,30.55,30.20,9,2,0,0.17
2013-12-12,46.0,26.6,3.7,21.4,13.8,0.7,90,61,36,30.55,30.18,9,3,0,0.06
2013-12-13,35.1,32.6,28.4,32.2,27.8,17.5,95,83,58,30.18,29.76,14,6,0,0.45
2013-12-14,32.7,29.6,25.0,31.5,28.0,23.0,96,94,92,30.13,29.74,15,6,0,0.04
2013-12-15,49.1,33.3,16.2,34.2,27.0,14.8,95,79,55,30.14,29.99,7,2,0,0.46
2013-12-16,63.5,45.9,31.3,37.0,33.2,28.4,92,64,37,30.06,29.93,7,3,0,0.00
2013-12-17,53.8,35.8,23.9,36.5,28.2,21.9,95,77,41,30.24,30.04,11,2,0,0.04
2013-12-18,61.5,44.4,23.2,38.1,31.2,20.7,92,63,38,30.22,29.84,15,6,0,0.00
2013-12-19,56.1,52.6,47.3,50.9,46.0,38.0,86,78,68,29.84,29.65,12,7,0,0.00
2013-12-20,59.4,45.0,29.8,55.8,42.3,28.3,95,90,86,29.81,29.63,10,5,0,0.21
2013-12-21,32.7,32.0,29.8,31.7,30.7,28.3,96,95,94,29.73,29.42,4,1,0,0.00
2013-12-22,33.4,28.0,23.0,32.3,26.4,21.3,96,94,91,30.26,29.57,8,0,0,0.00
2013-12-23,30.6,18.9,13.1,21.3,15.8,11.2,94,88,67,30.51,30.26,7,3,0,0.00
2013-12-24,34.0,22.4,8.1,23.9,16.1,6.3,92,78,64,30.50,30.17,18,6,0,0.01
2013-12-25,37.2,29.8,20.1,32.8,26.2,18.2,95,86,77,30.30,30.20,9,3,0,0.00
2013-12-26,49.6,33.7,16.7,33.9,24.7,14.8,96,72,43,30.32,30.19,8,2,0,0.00
2013-12-27,60.3,41.9,28.6,36.0,29.6,25.4,89,65,33,30.33,30.21,8,2,0,0.00
2013-12-28,55.6,42.5,31.3,35.9,30.0,26.6,85,63,39,30.22,29.85,7,3,0,0.00
2013-12-29,26.4,21.2,16.0,22.6,15.7,10.9,86,79,75,30.19,30.06,11,6,0,0.00
2013-12-30,37.4,21.4,7.2,17.5,10.7,3.9,88,66,35,30.21,30.09,7,2,0,0.00
2013-12-31,55.4,37.8,17.1,28.5,21.5,13.4,88,56,30,30.29,30.07,12,5,0,0.00
2014-1-1,52.9,37.9,18.7,30.3,25.8,16.3,90,64,41,30.06,29.81,12,6,0,0.00
2014-1-2,23.7,13.9,2.1,14.9,8.8,-0.6,90,81,53,30.40,30.07,14,6,0,0.00